createdAt,value
2018-12-09T00:00:04.139Z,4.90
2018-12-09T00:02:06.102Z,3.23
2018-12-09T00:04:08.051Z,5.90
2018-12-09T00:06:09.994Z,6.20
2018-12-09T00:08:11.947Z,5.17
2018-12-09T00:10:13.911Z,4.33
2018-12-09T00:12:15.863Z,4.27
2018-12-09T00:14:17.856Z,5.33
2018-12-09T00:16:19.818Z,13.40
2018-12-09T00:18:21.770Z,3.67
2018-12-09T00:20:23.703Z,3.20
2018-12-09T00:22:25.654Z,4.43
2018-12-09T00:24:27.599Z,6.07
2018-12-09T00:26:29.818Z,6.17
2018-12-09T00:28:31.762Z,4.37
2018-12-09T00:30:33.703Z,4.63
2018-12-09T00:32:35.648Z,2.60
2018-12-09T00:34:37.582Z,3.03
2018-12-09T00:36:39.531Z,5.33
2018-12-09T00:38:41.474Z,1.33
2018-12-09T00:40:43.414Z,1.60
2018-12-09T00:42:45.367Z,3.70
2018-12-09T00:44:47.343Z,1.33
2018-12-09T00:46:49.298Z,2.37
2018-12-09T00:48:51.235Z,1.73
2018-12-09T00:50:53.227Z,4.00
2018-12-09T00:52:55.178Z,5.97
2018-12-09T00:54:57.126Z,1.50
2018-12-09T00:56:59.072Z,4.07
2018-12-09T00:59:01.014Z,3.40
2018-12-09T01:01:02.966Z,2.80
2018-12-09T01:03:04.919Z,2.00
2018-12-09T01:05:07.654Z,4.93
2018-12-09T01:07:09.615Z,4.93
2018-12-09T01:09:11.578Z,4.47
2018-12-09T01:11:13.524Z,8.10
2018-12-09T01:13:15.475Z,4.17
2018-12-09T01:15:17.422Z,5.60
2018-12-09T01:17:19.378Z,4.70
2018-12-09T01:19:21.327Z,7.17
2018-12-09T01:21:23.287Z,5.50
2018-12-09T01:23:25.227Z,3.40
2018-12-09T01:25:27.187Z,7.10
2018-12-09T01:27:29.250Z,11.10
2018-12-09T01:29:31.198Z,7.37
2018-12-09T01:31:33.811Z,11.93
2018-12-09T01:33:35.924Z,4.33
2018-12-09T01:35:37.914Z,9.10
2018-12-09T01:37:39.874Z,7.23
2018-12-09T01:39:41.950Z,7.13
2018-12-09T01:41:44.006Z,8.97
2018-12-09T01:43:46.070Z,6.20
2018-12-09T01:45:48.129Z,13.83
2018-12-09T01:47:50.191Z,14.53
2018-12-09T01:49:52.138Z,7.60
2018-12-09T01:51:54.199Z,9.80
2018-12-09T01:54:12.246Z,6.13
2018-12-09T01:56:14.194Z,6.80
2018-12-09T01:58:16.654Z,4.60
2018-12-09T02:00:18.735Z,6.90
2018-12-09T02:02:20.691Z,5.37
2018-12-09T02:04:22.742Z,6.13
2018-12-09T02:06:24.799Z,11.97
2018-12-09T02:08:26.864Z,8.57
2018-12-09T02:10:28.926Z,6.10
2018-12-09T02:12:30.983Z,9.37
2018-12-09T02:14:33.043Z,7.87
2018-12-09T02:16:34.998Z,14.13
2018-12-09T02:18:37.067Z,11.30
2018-12-09T02:20:39.127Z,8.00
2018-12-09T02:22:41.198Z,10.73
2018-12-09T02:24:43.264Z,7.00
2018-12-09T02:26:45.243Z,7.00
2018-12-09T02:28:47.340Z,7.80
2018-12-09T02:30:49.394Z,7.47
2018-12-09T02:32:51.460Z,7.77
2018-12-09T02:34:53.519Z,8.07
2018-12-09T02:36:55.587Z,14.17
2018-12-09T02:38:57.586Z,9.27
2018-12-09T02:40:59.646Z,17.17
2018-12-09T02:43:01.706Z,8.53
2018-12-09T02:45:04.203Z,9.00
2018-12-09T02:47:06.154Z,3.13
2018-12-09T02:49:08.249Z,6.90
2018-12-09T02:51:10.301Z,7.00
2018-12-09T02:53:12.358Z,6.17
2018-12-09T02:55:14.410Z,7.37
2018-12-09T02:57:16.668Z,4.03
2018-12-09T02:59:18.726Z,6.60
2018-12-09T03:01:20.798Z,7.23
2018-12-09T03:03:22.867Z,16.47
2018-12-09T03:05:24.816Z,8.10
2018-12-09T03:07:26.871Z,2.70
2018-12-09T03:09:28.932Z,8.60
2018-12-09T03:11:30.974Z,6.13
2018-12-09T03:13:33.046Z,5.40
2018-12-09T03:15:34.999Z,3.57
2018-12-09T03:17:37.059Z,6.43
2018-12-09T03:19:39.129Z,6.00
2018-12-09T03:21:41.078Z,6.73
2018-12-09T03:23:43.148Z,2.83
2018-12-09T03:25:45.210Z,5.93
2018-12-09T03:27:47.290Z,8.57
2018-12-09T03:29:49.363Z,9.80
2018-12-09T03:31:52.028Z,6.30
2018-12-09T03:33:54.090Z,3.57
2018-12-09T03:35:56.043Z,5.70
2018-12-09T03:37:58.094Z,6.97
2018-12-09T03:40:00.054Z,6.83
2018-12-09T03:42:02.195Z,8.23
2018-12-09T03:44:04.253Z,4.90
2018-12-09T03:46:06.306Z,11.07
2018-12-09T03:48:08.384Z,9.30
2018-12-09T03:50:10.443Z,7.60
2018-12-09T03:52:12.507Z,6.67
2018-12-09T03:54:14.771Z,7.80
2018-12-09T03:56:16.735Z,6.63
2018-12-09T03:58:18.694Z,7.33
2018-12-09T04:00:20.658Z,5.83
2018-12-09T04:02:22.729Z,14.60
2018-12-09T04:04:24.792Z,8.50
2018-12-09T04:06:26.852Z,8.13
2018-12-09T04:08:28.908Z,6.97
2018-12-09T04:10:30.971Z,7.73
2018-12-09T04:12:32.928Z,8.40
2018-12-09T04:14:35.005Z,9.97
2018-12-09T04:16:37.666Z,12.83
2018-12-09T04:18:39.731Z,11.37
2018-12-09T04:20:41.784Z,7.90
2018-12-09T04:22:43.831Z,11.63
2018-12-09T04:24:45.791Z,7.50
2018-12-09T04:26:47.855Z,10.03
2018-12-09T04:28:49.902Z,6.53
2018-12-09T04:30:51.968Z,6.80
2018-12-09T04:32:54.034Z,9.90
2018-12-09T04:34:56.113Z,11.90
2018-12-09T04:36:58.166Z,16.73
2018-12-09T04:39:00.335Z,14.40
2018-12-09T04:41:02.392Z,11.90
2018-12-09T04:43:04.452Z,17.03
2018-12-09T04:45:06.514Z,30.47
2018-12-09T04:47:08.570Z,17.00
2018-12-09T04:49:10.626Z,37.40
2018-12-09T04:51:12.691Z,15.93
2018-12-09T04:53:14.755Z,14.33
2018-12-09T04:55:16.698Z,18.33
2018-12-09T04:57:18.676Z,21.23
2018-12-09T04:59:21.946Z,9.83
2018-12-09T05:01:23.903Z,18.40
2018-12-09T05:03:25.969Z,14.10
2018-12-09T05:05:27.932Z,12.50
2018-12-09T05:07:29.886Z,16.97
2018-12-09T05:09:31.962Z,15.17
2018-12-09T05:11:34.032Z,26.83
2018-12-09T05:13:36.395Z,12.47
2018-12-09T05:15:38.459Z,17.47
2018-12-09T05:17:40.415Z,22.03
2018-12-09T05:19:42.403Z,36.93
2018-12-09T05:21:44.458Z,19.77
2018-12-09T05:23:46.431Z,9.83
2018-12-09T05:25:48.495Z,10.43
2018-12-09T05:27:50.547Z,12.57
2018-12-09T05:29:52.607Z,21.40
2018-12-09T05:31:54.671Z,8.80
2018-12-09T05:33:56.649Z,11.40
2018-12-09T05:35:59.211Z,15.80
2018-12-09T05:38:01.164Z,30.00
2018-12-09T05:40:03.617Z,16.77
2018-12-09T05:42:05.671Z,15.93
2018-12-09T05:44:07.622Z,11.13
2018-12-09T05:46:09.592Z,21.87
2018-12-09T05:48:11.647Z,14.73
2018-12-09T05:50:13.706Z,15.07
2018-12-09T05:52:15.767Z,23.07
2018-12-09T05:54:17.822Z,15.30
2018-12-09T05:56:19.778Z,15.63
2018-12-09T05:58:26.279Z,21.07
2018-12-09T06:00:28.226Z,16.63
2018-12-09T06:03:06.238Z,9.50
2018-12-09T06:05:08.695Z,13.73
2018-12-09T06:07:10.758Z,13.13
2018-12-09T06:09:12.811Z,15.50
2018-12-09T06:11:14.872Z,20.07
2018-12-09T06:13:16.940Z,6.63
2018-12-09T06:15:18.890Z,5.70
2018-12-09T06:17:20.871Z,5.77
2018-12-09T06:19:22.962Z,4.37
2018-12-09T06:21:25.026Z,1.83
2018-12-09T06:23:27.091Z,9.43
2018-12-09T06:25:29.115Z,3.90
2018-12-09T06:27:31.183Z,2.23
2018-12-09T06:29:33.242Z,2.97
2018-12-09T06:31:35.295Z,3.10
2018-12-09T06:33:37.364Z,5.00
2018-12-09T06:35:39.414Z,2.00
2018-12-09T06:37:41.874Z,1.97
2018-12-09T06:39:43.830Z,2.33
2018-12-09T06:41:45.882Z,4.20
2018-12-09T06:43:47.850Z,3.60
2018-12-09T06:45:49.803Z,1.70
2018-12-09T06:47:51.870Z,4.50
2018-12-09T06:49:53.927Z,2.60
2018-12-09T06:51:55.896Z,1.80
2018-12-09T06:53:57.957Z,3.03
2018-12-09T06:55:59.910Z,1.90
2018-12-09T06:58:01.870Z,6.30
2018-12-09T07:00:06.419Z,2.20
2018-12-09T07:02:08.370Z,3.87
2018-12-09T07:04:10.435Z,1.47
2018-12-09T07:06:12.584Z,1.33
2018-12-09T07:08:14.667Z,1.30
2018-12-09T07:10:17.226Z,2.00
2018-12-09T07:12:19.283Z,1.57
2018-12-09T07:14:21.346Z,3.00
2018-12-09T07:16:23.299Z,1.20
2018-12-09T07:18:25.369Z,1.40
2018-12-09T07:20:27.621Z,1.83
2018-12-09T07:22:29.709Z,1.50
2018-12-09T07:24:31.778Z,4.73
2018-12-09T07:26:33.835Z,1.43
2018-12-09T07:28:35.899Z,1.13
2018-12-09T07:30:37.954Z,2.03
2018-12-09T07:32:39.911Z,1.87
2018-12-09T07:34:41.862Z,1.40
2018-12-09T07:36:43.919Z,2.73
2018-12-09T07:38:45.879Z,2.30
2018-12-09T07:40:47.832Z,1.37
2018-12-09T07:42:49.786Z,1.53
2018-12-09T07:44:51.747Z,1.60
2018-12-09T07:46:53.850Z,2.23
2018-12-09T07:48:55.919Z,2.83
2018-12-09T07:50:57.987Z,2.07
2018-12-09T07:53:00.262Z,3.40
2018-12-09T07:55:02.234Z,1.10
2018-12-09T07:57:04.200Z,2.03
2018-12-09T07:59:09.315Z,1.33
2018-12-09T08:01:11.270Z,5.30
2018-12-09T08:04:37.868Z,3.30
2018-12-09T08:06:39.821Z,1.27
2018-12-09T08:08:41.769Z,2.10
2018-12-09T08:10:43.719Z,2.17
2018-12-09T08:12:45.679Z,1.50
2018-12-09T08:14:54.398Z,1.77
2018-12-09T08:16:56.370Z,1.93
2018-12-09T08:18:58.323Z,2.33
2018-12-09T08:21:00.278Z,1.33
2018-12-09T08:23:02.279Z,1.60
2018-12-09T08:25:04.282Z,4.00
2018-12-09T08:27:06.458Z,3.40
2018-12-09T08:29:08.423Z,1.50
2018-12-09T08:31:10.380Z,4.20
2018-12-09T08:33:12.434Z,7.70
2018-12-09T08:35:15.332Z,3.20
2018-12-09T08:37:17.563Z,4.50
2018-12-09T08:39:19.522Z,3.43
2018-12-09T08:41:21.479Z,4.83
2018-12-09T08:43:23.430Z,1.80
2018-12-09T08:45:25.382Z,1.47
2018-12-09T08:47:27.335Z,1.13
2018-12-09T08:49:29.303Z,1.70
2018-12-09T08:51:31.262Z,6.03
2018-12-09T08:53:33.243Z,2.03
2018-12-09T08:55:35.524Z,1.73
2018-12-09T08:57:37.477Z,1.30
2018-12-09T08:59:39.446Z,2.60
2018-12-09T09:01:41.390Z,1.47
2018-12-09T09:03:43.326Z,2.13
2018-12-09T09:05:45.283Z,1.60
2018-12-09T09:07:47.235Z,1.40
2018-12-09T09:09:49.191Z,1.30
2018-12-09T09:11:51.146Z,1.73
2018-12-09T09:13:53.115Z,1.47
2018-12-09T09:15:55.075Z,1.30
2018-12-09T09:17:57.034Z,1.87
2018-12-09T09:19:58.999Z,1.97
2018-12-09T09:22:00.954Z,4.00
2018-12-09T09:24:02.966Z,3.60
2018-12-09T09:26:04.915Z,2.07
2018-12-09T09:28:06.902Z,2.37
2018-12-09T09:30:08.866Z,1.30
2018-12-09T09:32:10.911Z,3.33
2018-12-09T09:34:12.863Z,3.63
2018-12-09T09:36:14.819Z,2.60
2018-12-09T09:38:16.773Z,3.13
2018-12-09T09:40:18.735Z,1.73
2018-12-09T09:42:20.686Z,2.30
2018-12-09T09:44:22.639Z,4.13
2018-12-09T09:46:24.594Z,1.50
2018-12-09T09:48:26.594Z,1.90
2018-12-09T09:50:28.603Z,2.23
2018-12-09T09:52:30.567Z,1.93
2018-12-09T09:54:32.510Z,1.33
2018-12-09T09:56:34.469Z,1.50
2018-12-09T09:58:36.539Z,2.33
2018-12-09T10:00:38.503Z,1.83
2018-12-09T10:05:18.523Z,1.60
2018-12-09T10:07:20.479Z,3.87
2018-12-09T10:09:22.430Z,2.20
2018-12-09T10:11:24.394Z,3.33
2018-12-09T10:13:26.463Z,2.23
2018-12-09T10:15:28.427Z,2.37
2018-12-09T10:17:30.374Z,2.40
2018-12-09T10:19:32.335Z,1.40
2018-12-09T10:21:34.306Z,2.30
2018-12-09T10:23:36.255Z,5.70
2018-12-09T10:25:38.215Z,1.60
2018-12-09T10:27:40.182Z,4.33
2018-12-09T10:29:42.143Z,2.23
2018-12-09T10:31:44.103Z,5.43
2018-12-09T10:33:46.055Z,2.40
2018-12-09T10:35:48.011Z,1.87
2018-12-09T10:37:49.958Z,3.13
2018-12-09T10:39:51.911Z,4.70
2018-12-09T10:41:53.871Z,7.27
2018-12-09T10:43:55.826Z,2.67
2018-12-09T10:45:57.883Z,10.00
2018-12-09T10:47:59.839Z,3.80
2018-12-09T10:50:01.811Z,4.30
2018-12-09T10:52:03.775Z,6.00
2018-12-09T10:54:05.728Z,10.77
2018-12-09T10:56:07.702Z,6.70
2018-12-09T10:58:09.646Z,5.83
2018-12-09T11:00:16.487Z,6.37
2018-12-09T11:02:19.202Z,9.63
2018-12-09T11:04:21.151Z,7.63
2018-12-09T11:06:23.415Z,6.70
2018-12-09T11:08:25.368Z,6.30
2018-12-09T11:10:27.307Z,9.33
2018-12-09T11:12:29.252Z,5.30
2018-12-09T11:14:31.202Z,5.80
2018-12-09T11:16:33.263Z,18.13
2018-12-09T11:18:35.213Z,6.10
2018-12-09T11:20:37.263Z,7.13
2018-12-09T11:22:39.271Z,8.07
2018-12-09T11:24:41.214Z,9.00
2018-12-09T11:26:43.175Z,8.80
2018-12-09T11:28:45.119Z,7.70
2018-12-09T11:30:47.059Z,19.97
2018-12-09T11:32:49.011Z,9.00
2018-12-09T11:34:50.955Z,6.80
2018-12-09T11:36:52.942Z,7.20
2018-12-09T11:38:54.894Z,15.20
2018-12-09T11:40:56.843Z,23.70
2018-12-09T11:42:58.797Z,10.03
2018-12-09T11:45:00.751Z,10.20
2018-12-09T11:47:02.703Z,8.40
2018-12-09T11:49:04.658Z,11.10
2018-12-09T11:51:06.743Z,8.73
2018-12-09T11:53:08.695Z,9.93
2018-12-09T11:55:10.629Z,15.03
2018-12-09T11:57:13.334Z,6.87
2018-12-09T11:59:15.410Z,7.93
2018-12-09T12:01:17.367Z,11.80
2018-12-09T12:03:19.319Z,8.13
2018-12-09T12:05:21.278Z,9.70
2018-12-09T12:07:23.242Z,7.63
2018-12-09T12:09:25.187Z,7.50
2018-12-09T12:11:27.130Z,11.60
2018-12-09T12:13:29.098Z,4.97
2018-12-09T12:15:31.038Z,9.10
2018-12-09T12:17:32.989Z,7.23
2018-12-09T12:19:34.940Z,9.67
2018-12-09T12:21:36.898Z,7.87
2018-12-09T12:23:38.858Z,13.20
2018-12-09T12:25:40.808Z,8.73
2018-12-09T12:27:42.756Z,8.50
2018-12-09T12:29:44.711Z,12.57
2018-12-09T12:31:46.663Z,7.07
2018-12-09T12:33:48.615Z,9.97
2018-12-09T12:35:50.559Z,11.37
2018-12-09T12:37:52.523Z,8.83
2018-12-09T12:39:54.474Z,11.03
2018-12-09T12:41:56.458Z,10.23
2018-12-09T12:43:58.483Z,11.90
2018-12-09T12:46:00.443Z,19.07
2018-12-09T12:48:02.404Z,9.20
2018-12-09T12:50:04.371Z,9.27
2018-12-09T12:52:06.335Z,22.97
2018-12-09T12:54:08.278Z,11.60
2018-12-09T12:56:10.234Z,8.83
2018-12-09T12:58:12.195Z,16.53
2018-12-09T13:00:16.439Z,9.03
2018-12-09T13:02:18.374Z,18.50
2018-12-09T13:04:20.332Z,11.13
2018-12-09T13:06:22.591Z,11.63
2018-12-09T13:08:24.905Z,20.77
2018-12-09T13:10:27.067Z,10.90
2018-12-09T13:12:29.011Z,14.43
2018-12-09T13:14:30.962Z,33.33
2018-12-09T13:16:32.908Z,8.90
2018-12-09T13:18:34.864Z,15.60
2018-12-09T13:20:36.823Z,19.80
2018-12-09T13:22:38.771Z,9.70
2018-12-09T13:24:40.834Z,9.83
2018-12-09T13:26:42.799Z,15.73
2018-12-09T13:28:44.746Z,11.33
2018-12-09T13:30:46.708Z,8.60
2018-12-09T13:32:48.762Z,10.67
2018-12-09T13:34:50.715Z,14.03
2018-12-09T13:36:52.662Z,10.20
2018-12-09T13:38:54.615Z,17.73
2018-12-09T13:40:56.550Z,9.50
2018-12-09T13:42:58.499Z,11.70
2018-12-09T13:45:00.438Z,12.30
2018-12-09T13:47:02.398Z,9.13
2018-12-09T13:49:04.363Z,9.03
2018-12-09T13:51:06.314Z,6.73
2018-12-09T13:53:08.260Z,10.93
2018-12-09T13:55:10.221Z,10.97
2018-12-09T13:57:12.188Z,9.70
2018-12-09T13:59:14.152Z,10.80
2018-12-09T14:01:16.203Z,15.27
2018-12-09T14:03:18.150Z,11.90
2018-12-09T14:05:20.110Z,9.83
2018-12-09T14:07:22.090Z,4.80
2018-12-09T14:09:24.054Z,7.43
2018-12-09T14:11:26.001Z,4.77
2018-12-09T14:13:27.950Z,4.50
2018-12-09T14:15:30.035Z,8.73
2018-12-09T14:17:31.979Z,9.73
2018-12-09T14:19:33.935Z,10.80
2018-12-09T14:21:35.903Z,5.50
2018-12-09T14:23:37.851Z,7.57
2018-12-09T14:25:39.826Z,16.10
2018-12-09T14:27:41.779Z,6.63
2018-12-09T14:29:43.828Z,14.57
2018-12-09T14:31:46.101Z,9.37
2018-12-09T14:33:48.050Z,9.23
2018-12-09T14:35:49.999Z,9.73
2018-12-09T14:37:52.043Z,6.90
2018-12-09T14:39:54.006Z,14.33
2018-12-09T14:41:55.962Z,6.87
2018-12-09T14:43:57.911Z,8.43
2018-12-09T14:45:59.854Z,18.67
2018-12-09T14:48:01.803Z,13.23
2018-12-09T14:50:05.382Z,7.27
2018-12-09T14:52:07.351Z,7.27
2018-12-09T14:54:09.402Z,5.90
2018-12-09T14:56:11.365Z,12.47
2018-12-09T14:58:13.316Z,13.40
2018-12-09T15:00:15.269Z,13.33
2018-12-09T15:02:17.210Z,12.07
2018-12-09T15:04:19.171Z,9.53
2018-12-09T15:06:21.139Z,5.00
2018-12-09T15:08:23.123Z,8.30
2018-12-09T15:10:25.075Z,4.63
2018-12-09T15:12:28.446Z,4.07
2018-12-09T15:14:30.387Z,3.90
2018-12-09T15:16:32.354Z,9.03
2018-12-09T15:18:34.320Z,6.50
2018-12-09T15:20:36.282Z,9.77
2018-12-09T15:22:38.248Z,3.70
2018-12-09T15:24:41.637Z,6.17
2018-12-09T15:26:43.887Z,21.07
2018-12-09T15:28:45.846Z,7.90
2018-12-09T15:30:47.799Z,12.13
2018-12-09T15:32:49.866Z,7.90
2018-12-09T15:34:51.828Z,9.47
2018-12-09T15:36:53.898Z,9.13
2018-12-09T15:38:55.850Z,8.67
2018-12-09T15:40:57.806Z,9.60
2018-12-09T15:42:59.771Z,31.73
2018-12-09T15:45:01.802Z,16.57
2018-12-09T15:47:04.541Z,9.30
2018-12-09T15:49:06.494Z,17.93
2018-12-09T15:51:08.654Z,18.67
2018-12-09T15:53:10.622Z,9.90
2018-12-09T15:55:12.575Z,13.33
2018-12-09T15:57:14.527Z,9.53
2018-12-09T15:59:16.475Z,14.37
2018-12-09T16:01:18.434Z,8.03
2018-12-09T16:03:20.441Z,8.70
2018-12-09T16:05:22.390Z,14.73
2018-12-09T16:07:24.343Z,9.10
2018-12-09T16:09:26.323Z,12.13
2018-12-09T16:11:28.283Z,15.40
2018-12-09T16:13:30.238Z,7.50
2018-12-09T16:15:32.194Z,16.83
2018-12-09T16:17:34.170Z,27.77
2018-12-09T16:19:36.123Z,13.60
2018-12-09T16:21:38.089Z,13.93
2018-12-09T16:23:40.049Z,9.37
2018-12-09T16:25:42.006Z,9.53
2018-12-09T16:27:43.970Z,22.07
2018-12-09T16:29:45.923Z,27.83
2018-12-09T16:31:47.889Z,12.10
2018-12-09T16:33:49.863Z,17.43
2018-12-09T16:35:51.823Z,12.80
2018-12-09T16:37:53.778Z,21.13
2018-12-09T16:39:55.763Z,20.43
2018-12-09T16:41:57.715Z,15.97
2018-12-09T16:43:59.686Z,23.63
2018-12-09T16:46:01.639Z,18.73
2018-12-09T16:48:03.596Z,24.73
2018-12-09T16:50:05.695Z,14.10
2018-12-09T16:52:07.639Z,27.27
2018-12-09T16:54:09.594Z,16.27
2018-12-09T16:56:11.543Z,23.53
2018-12-09T16:58:13.499Z,14.20
2018-12-09T17:00:15.451Z,24.80
2018-12-09T17:02:17.407Z,24.47
2018-12-09T17:04:19.359Z,22.93
2018-12-09T17:06:21.310Z,24.87
2018-12-09T17:08:23.270Z,43.60
2018-12-09T17:10:25.228Z,24.97
2018-12-09T17:12:27.181Z,31.87
2018-12-09T17:14:29.550Z,29.20
2018-12-09T17:16:31.485Z,28.70
2018-12-09T17:18:33.446Z,27.60
2018-12-09T17:20:35.391Z,19.93
2018-12-09T17:22:37.342Z,17.50
2018-12-09T17:24:39.283Z,19.77
2018-12-09T17:26:41.228Z,23.63
2018-12-09T17:28:43.190Z,25.57
2018-12-09T17:30:45.139Z,22.10
2018-12-09T17:32:47.086Z,20.80
2018-12-09T17:34:49.050Z,27.43
2018-12-09T17:36:51.069Z,23.40
2018-12-09T17:38:53.038Z,25.97
2018-12-09T17:40:55.190Z,22.20
2018-12-09T17:42:57.142Z,22.17
2018-12-09T17:44:59.101Z,36.30
2018-12-09T17:47:01.077Z,45.40
2018-12-09T17:49:03.038Z,20.20
2018-12-09T17:51:04.978Z,31.13
2018-12-09T17:53:06.938Z,20.30
2018-12-09T17:55:08.999Z,32.93
2018-12-09T17:57:10.947Z,31.50
2018-12-09T17:59:12.886Z,35.63
2018-12-09T18:01:16.490Z,21.60
2018-12-09T18:03:18.442Z,24.53
2018-12-09T18:05:20.382Z,17.83
2018-12-09T18:07:22.312Z,33.93
2018-12-09T18:09:24.266Z,36.03
2018-12-09T18:11:26.223Z,27.77
2018-12-09T18:13:28.282Z,22.87
2018-12-09T18:15:30.245Z,30.17
2018-12-09T18:17:32.295Z,21.73
2018-12-09T18:19:34.281Z,33.60
2018-12-09T18:21:36.231Z,20.13
2018-12-09T18:23:38.182Z,21.80
2018-12-09T18:25:40.138Z,25.03
2018-12-09T18:27:42.094Z,21.17
2018-12-09T18:29:44.062Z,26.77
2018-12-09T18:31:46.015Z,24.37
2018-12-09T18:33:47.975Z,29.97
2018-12-09T18:35:49.946Z,16.27
2018-12-09T18:37:51.894Z,25.60
2018-12-09T18:39:53.869Z,27.63
2018-12-09T18:41:55.834Z,32.00
2018-12-09T18:43:57.998Z,23.20
2018-12-09T18:45:59.959Z,28.33
2018-12-09T18:48:01.926Z,19.93
2018-12-09T18:50:04.632Z,21.93
2018-12-09T18:52:06.583Z,27.50
2018-12-09T18:54:08.569Z,18.60
2018-12-09T18:56:10.599Z,25.40
2018-12-09T18:58:12.547Z,13.33
2018-12-09T19:00:14.499Z,29.63
2018-12-09T19:02:16.456Z,17.37
2018-12-09T19:04:18.409Z,15.83
2018-12-09T19:06:20.374Z,23.17
2018-12-09T19:08:22.330Z,14.43
2018-12-09T19:10:24.287Z,18.47
2018-12-09T19:12:26.235Z,20.37
2018-12-09T19:14:28.212Z,24.37
2018-12-09T19:16:30.181Z,21.30
2018-12-09T19:18:32.139Z,25.10
2018-12-09T19:20:34.076Z,26.33
2018-12-09T19:22:36.041Z,14.90
2018-12-09T19:24:38.094Z,31.27
2018-12-09T19:26:40.062Z,23.23
2018-12-09T19:28:42.019Z,25.23
2018-12-09T19:30:48.143Z,25.70
2018-12-09T19:32:47.923Z,29.60
2018-12-09T19:34:49.891Z,14.90
2018-12-09T19:36:51.846Z,31.77
2018-12-09T19:38:53.799Z,25.67
2018-12-09T19:40:55.775Z,33.83
2018-12-09T19:42:57.722Z,39.50
2018-12-09T19:44:59.662Z,35.13
2018-12-09T19:47:01.615Z,31.23
2018-12-09T19:49:03.562Z,27.60
2018-12-09T19:51:14.046Z,20.47
2018-12-09T19:53:21.144Z,32.60
2018-12-09T19:55:23.179Z,33.73
2018-12-09T19:57:25.139Z,21.33
2018-12-09T19:59:27.098Z,26.20
2018-12-09T20:01:29.062Z,22.13
2018-12-09T20:03:31.011Z,21.17
2018-12-09T20:05:32.971Z,32.00
2018-12-09T20:07:34.930Z,23.83
2018-12-09T20:09:36.870Z,31.27
2018-12-09T20:11:38.836Z,23.53
2018-12-09T20:13:40.845Z,24.37
2018-12-09T20:15:42.843Z,21.00
2018-12-09T20:17:44.875Z,26.50
2018-12-09T20:19:46.839Z,23.53
2018-12-09T20:21:48.805Z,19.93
2018-12-09T20:23:50.754Z,23.43
2018-12-09T20:25:52.711Z,15.60
2018-12-09T20:27:54.674Z,26.97
2018-12-09T20:29:56.631Z,22.23
2018-12-09T20:31:58.598Z,22.73
2018-12-09T20:34:00.551Z,21.10
2018-12-09T20:36:02.511Z,20.70
2018-12-09T20:38:04.463Z,25.97
2018-12-09T20:40:06.431Z,34.10
2018-12-09T20:42:08.414Z,20.10
2018-12-09T20:44:10.443Z,28.00
2018-12-09T20:46:12.395Z,22.07
2018-12-09T20:48:14.331Z,25.37
2018-12-09T20:50:16.281Z,30.63
2018-12-09T20:52:18.239Z,16.40
2018-12-09T20:54:20.170Z,24.17
2018-12-09T20:56:22.123Z,22.50
2018-12-09T20:58:24.090Z,25.40
2018-12-09T21:00:26.068Z,23.83
2018-12-09T21:02:28.127Z,18.87
2018-12-09T21:04:30.111Z,17.13
2018-12-09T21:06:32.167Z,25.57
2018-12-09T21:08:34.123Z,18.27
2018-12-09T21:10:36.078Z,24.73
2018-12-09T21:12:38.027Z,18.20
2018-12-09T21:14:39.983Z,18.53
2018-12-09T21:16:41.931Z,21.00
2018-12-09T21:18:43.891Z,19.50
2018-12-09T21:20:45.842Z,23.47
2018-12-09T21:22:47.795Z,29.43
2018-12-09T21:24:49.750Z,22.87
2018-12-09T21:26:51.706Z,28.10
2018-12-09T21:28:53.658Z,26.83
2018-12-09T21:30:55.614Z,20.57
2018-12-09T21:32:57.567Z,21.67
2018-12-09T21:34:59.522Z,26.77
2018-12-09T21:37:01.490Z,13.63
2018-12-09T21:39:05.097Z,19.33
2018-12-09T21:41:07.052Z,25.93
2018-12-09T21:43:09.003Z,23.53
2018-12-09T21:45:10.954Z,19.77
2018-12-09T21:47:12.906Z,21.03
2018-12-09T21:49:14.863Z,20.03
2018-12-09T21:51:16.815Z,10.30
2018-12-09T21:53:18.767Z,18.67
2018-12-09T21:55:20.815Z,26.00
2018-12-09T21:57:22.971Z,13.77
2018-12-09T21:59:24.950Z,15.90
2018-12-09T22:01:26.895Z,21.63
2018-12-09T22:03:28.850Z,12.30
2018-12-09T22:05:30.795Z,17.27
2018-12-09T22:07:33.492Z,19.60
2018-12-09T22:09:35.443Z,9.97
2018-12-09T22:11:37.395Z,16.33
2018-12-09T22:13:39.357Z,28.10
2018-12-09T22:15:41.307Z,21.70
2018-12-09T22:17:43.254Z,13.50
2018-12-09T22:19:45.216Z,21.03
2018-12-09T22:21:47.153Z,15.07
2018-12-09T22:23:49.120Z,15.80
2018-12-09T22:25:51.074Z,44.57
2018-12-09T22:27:53.026Z,14.50
2018-12-09T22:29:54.982Z,23.03
2018-12-09T22:31:56.935Z,25.47
2018-12-09T22:33:58.890Z,14.37
2018-12-09T22:36:00.851Z,10.00
2018-12-09T22:38:02.807Z,23.10
2018-12-09T22:40:05.547Z,17.27
2018-12-09T22:42:07.496Z,27.43
2018-12-09T22:44:09.454Z,20.47
2018-12-09T22:46:11.412Z,14.93
2018-12-09T22:48:13.384Z,20.37
2018-12-09T22:50:15.343Z,18.83
2018-12-09T22:52:18.083Z,21.37
2018-12-09T22:54:20.063Z,14.40
2018-12-09T22:56:22.015Z,24.13
2018-12-09T22:58:23.966Z,23.10
2018-12-09T23:00:26.942Z,16.43
2018-12-09T23:02:34.627Z,18.80
2018-12-09T23:04:36.591Z,16.53
2018-12-09T23:06:38.542Z,16.97
2018-12-09T23:08:40.494Z,14.03
2018-12-09T23:10:42.450Z,13.50
2018-12-09T23:12:44.403Z,21.13
2018-12-09T23:14:46.375Z,14.40
2018-12-09T23:16:48.329Z,19.83
2018-12-09T23:18:50.393Z,18.93
2018-12-09T23:20:52.437Z,16.70
2018-12-09T23:22:54.397Z,12.40
2018-12-09T23:24:56.358Z,19.73
2018-12-09T23:26:58.317Z,32.90
2018-12-09T23:29:00.271Z,22.67
2018-12-09T23:31:02.241Z,18.63
2018-12-09T23:33:04.194Z,21.67
2018-12-09T23:35:06.720Z,17.87
2018-12-09T23:37:08.674Z,15.23
2018-12-09T23:39:10.626Z,25.80
2018-12-09T23:41:12.583Z,11.53
2018-12-09T23:43:14.528Z,13.87
2018-12-09T23:45:16.486Z,17.70
2018-12-09T23:47:18.443Z,11.97
2018-12-09T23:49:20.398Z,23.03
2018-12-09T23:51:22.355Z,31.73
2018-12-09T23:53:24.311Z,36.73
2018-12-09T23:55:26.266Z,24.87
2018-12-09T23:57:28.214Z,8.33
2018-12-09T23:59:30.175Z,11.50
